sensor_id;sensor_type;location;lat;lon;timestamp;temperature;humidity
40123;DHT22;25832;45.490;4.912;2022-08-19T00:00:23;17.60;99.90
40123;DHT22;25832;45.490;4.912;2022-08-19T00:02:50;17.60;99.90
40123;DHT22;25832;45.490;4.912;2022-08-19T00:05:17;17.60;99.90
40123;DHT22;25832;45.490;4.912;2022-08-19T00:07:44;17.60;99.90
40123;DHT22;25832;45.490;4.912;2022-08-19T00:10:12;17.60;99.90
40123;DHT22;25832;45.490;4.912;2022-08-19T00:12:38;17.60;99.90
40123;DHT22;25832;45.490;4.912;2022-08-19T00:15:07;17.60;99.90
40123;DHT22;25832;45.490;4.912;2022-08-19T00:17:42;17.60;99.90
40123;DHT22;25832;45.490;4.912;2022-08-19T00:20:12;17.60;99.90
40123;DHT22;25832;45.490;4.912;2022-08-19T00:22:39;17.60;99.90
40123;DHT22;25832;45.490;4.912;2022-08-19T00:25:07;17.60;99.90
40123;DHT22;25832;45.490;4.912;2022-08-19T00:27:33;17.60;99.90
40123;DHT22;25832;45.490;4.912;2022-08-19T00:29:59;17.60;99.90
40123;DHT22;25832;45.490;4.912;2022-08-19T00:32:25;17.60;99.90
40123;DHT22;25832;45.490;4.912;2022-08-19T00:34:52;17.70;99.90
40123;DHT22;25832;45.490;4.912;2022-08-19T00:37:23;17.70;99.90
40123;DHT22;25832;45.490;4.912;2022-08-19T00:39:51;17.70;99.90
40123;DHT22;25832;45.490;4.912;2022-08-19T00:42:18;17.60;99.90
40123;DHT22;25832;45.490;4.912;2022-08-19T00:44:44;17.70;99.90
40123;DHT22;25832;45.490;4.912;2022-08-19T00:47:10;17.70;99.90
40123;DHT22;25832;45.490;4.912;2022-08-19T00:49:52;17.70;99.90
40123;DHT22;25832;45.490;4.912;2022-08-19T00:52:43;17.70;99.90
40123;DHT22;25832;45.490;4.912;2022-08-19T00:55:14;17.70;99.90
40123;DHT22;25832;45.490;4.912;2022-08-19T00:57:46;17.70;99.90
40123;DHT22;25832;45.490;4.912;2022-08-19T01:00:15;17.70;99.90
40123;DHT22;25832;45.490;4.912;2022-08-19T01:02:42;17.70;99.90
40123;DHT22;25832;45.490;4.912;2022-08-19T01:05:11;17.70;99.90
40123;DHT22;25832;45.490;4.912;2022-08-19T01:07:39;17.70;99.90
40123;DHT22;25832;45.490;4.912;2022-08-19T01:10:08;17.70;99.90
40123;DHT22;25832;45.490;4.912;2022-08-19T01:12:35;17.70;99.90
40123;DHT22;25832;45.490;4.912;2022-08-19T01:15:02;17.70;99.90
40123;DHT22;25832;45.490;4.912;2022-08-19T01:17:28;17.70;99.90
40123;DHT22;25832;45.490;4.912;2022-08-19T01:19:54;17.80;99.90
40123;DHT22;25832;45.490;4.912;2022-08-19T01:24:49;17.70;99.90
40123;DHT22;25832;45.490;4.912;2022-08-19T01:27:15;17.70;99.90
40123;DHT22;25832;45.490;4.912;2022-08-19T01:29:42;17.70;99.90
40123;DHT22;25832;45.490;4.912;2022-08-19T01:32:13;17.70;99.90
40123;DHT22;25832;45.490;4.912;2022-08-19T01:34:40;17.60;99.90
40123;DHT22;25832;45.490;4.912;2022-08-19T01:37:08;17.60;99.90
40123;DHT22;25832;45.490;4.912;2022-08-19T01:39:37;17.60;99.90
40123;DHT22;25832;45.490;4.912;2022-08-19T01:42:03;17.60;99.90
40123;DHT22;25832;45.490;4.912;2022-08-19T01:44:30;17.60;99.90
40123;DHT22;25832;45.490;4.912;2022-08-19T01:46:55;17.60;99.90
40123;DHT22;25832;45.490;4.912;2022-08-19T01:49:23;17.60;99.90
40123;DHT22;25832;45.490;4.912;2022-08-19T01:51:50;17.60;99.90
40123;DHT22;25832;45.490;4.912;2022-08-19T01:54:17;17.60;99.90
40123;DHT22;25832;45.490;4.912;2022-08-19T01:56:43;17.60;99.90
40123;DHT22;25832;45.490;4.912;2022-08-19T01:59:15;17.60;99.90
40123;DHT22;25832;45.490;4.912;2022-08-19T02:01:41;17.60;99.90
40123;DHT22;25832;45.490;4.912;2022-08-19T02:04:07;17.50;99.90
40123;DHT22;25832;45.490;4.912;2022-08-19T02:06:34;17.50;99.90
40123;DHT22;25832;45.490;4.912;2022-08-19T02:09:00;17.40;99.90
40123;DHT22;25832;45.490;4.912;2022-08-19T02:11:31;17.40;99.90
40123;DHT22;25832;45.490;4.912;2022-08-19T02:14:00;17.40;99.90
40123;DHT22;25832;45.490;4.912;2022-08-19T02:16:27;17.40;99.90
40123;DHT22;25832;45.490;4.912;2022-08-19T02:18:52;17.40;99.90
40123;DHT22;25832;45.490;4.912;2022-08-19T02:21:20;17.30;99.90
40123;DHT22;25832;45.490;4.912;2022-08-19T02:23:47;17.40;99.90
40123;DHT22;25832;45.490;4.912;2022-08-19T02:26:13;17.30;99.90
40123;DHT22;25832;45.490;4.912;2022-08-19T02:28:40;17.30;99.90
40123;DHT22;25832;45.490;4.912;2022-08-19T02:31:15;17.30;99.90
40123;DHT22;25832;45.490;4.912;2022-08-19T02:33:41;17.30;99.90
40123;DHT22;25832;45.490;4.912;2022-08-19T02:36:08;17.30;99.90
40123;DHT22;25832;45.490;4.912;2022-08-19T02:38:35;17.30;99.90
40123;DHT22;25832;45.490;4.912;2022-08-19T02:41:05;17.30;99.90
40123;DHT22;25832;45.490;4.912;2022-08-19T02:43:33;17.30;99.90
40123;DHT22;25832;45.490;4.912;2022-08-19T02:46:10;17.30;99.90
40123;DHT22;25832;45.490;4.912;2022-08-19T02:48:36;17.30;99.90
40123;DHT22;25832;45.490;4.912;2022-08-19T02:51:02;17.20;99.90
40123;DHT22;25832;45.490;4.912;2022-08-19T02:53:28;17.20;99.90
40123;DHT22;25832;45.490;4.912;2022-08-19T02:55:54;17.20;99.90
40123;DHT22;25832;45.490;4.912;2022-08-19T02:58:20;17.30;99.90
40123;DHT22;25832;45.490;4.912;2022-08-19T03:00:49;17.30;99.90
40123;DHT22;25832;45.490;4.912;2022-08-19T03:03:15;17.30;99.90
40123;DHT22;25832;45.490;4.912;2022-08-19T03:05:42;17.30;99.90
40123;DHT22;25832;45.490;4.912;2022-08-19T03:08:08;17.30;99.90
40123;DHT22;25832;45.490;4.912;2022-08-19T03:10:44;17.30;99.90
40123;DHT22;25832;45.490;4.912;2022-08-19T03:13:12;17.30;99.90
40123;DHT22;25832;45.490;4.912;2022-08-19T03:15:40;17.30;99.90
40123;DHT22;25832;45.490;4.912;2022-08-19T03:18:06;17.30;99.90
40123;DHT22;25832;45.490;4.912;2022-08-19T03:20:32;17.30;99.90
40123;DHT22;25832;45.490;4.912;2022-08-19T03:22:58;17.30;99.90
40123;DHT22;25832;45.490;4.912;2022-08-19T03:25:23;17.30;99.90
40123;DHT22;25832;45.490;4.912;2022-08-19T03:27:49;17.30;99.90
40123;DHT22;25832;45.490;4.912;2022-08-19T03:30:15;17.30;99.90
40123;DHT22;25832;45.490;4.912;2022-08-19T03:32:41;17.40;99.90
40123;DHT22;25832;45.490;4.912;2022-08-19T03:35:06;17.30;99.90
40123;DHT22;25832;45.490;4.912;2022-08-19T03:37:32;17.40;99.90
40123;DHT22;25832;45.490;4.912;2022-08-19T03:39:58;17.40;99.90
40123;DHT22;25832;45.490;4.912;2022-08-19T03:42:24;17.40;99.90
40123;DHT22;25832;45.490;4.912;2022-08-19T03:44:52;17.40;99.90
40123;DHT22;25832;45.490;4.912;2022-08-19T03:47:18;17.40;99.90
40123;DHT22;25832;45.490;4.912;2022-08-19T03:49:44;17.40;99.90
40123;DHT22;25832;45.490;4.912;2022-08-19T03:52:10;17.40;99.90
40123;DHT22;25832;45.490;4.912;2022-08-19T03:54:36;17.50;99.90
40123;DHT22;25832;45.490;4.912;2022-08-19T03:57:03;17.40;99.90
40123;DHT22;25832;45.490;4.912;2022-08-19T03:59:32;17.40;99.90
40123;DHT22;25832;45.490;4.912;2022-08-19T04:02:00;17.50;99.90
40123;DHT22;25832;45.490;4.912;2022-08-19T04:04:26;17.50;99.90
40123;DHT22;25832;45.490;4.912;2022-08-19T04:06:53;17.50;99.90
40123;DHT22;25832;45.490;4.912;2022-08-19T04:09:20;17.50;99.90
40123;DHT22;25832;45.490;4.912;2022-08-19T04:11:49;17.50;99.90
40123;DHT22;25832;45.490;4.912;2022-08-19T04:14:17;17.50;99.90
40123;DHT22;25832;45.490;4.912;2022-08-19T04:16:44;17.50;99.90
40123;DHT22;25832;45.490;4.912;2022-08-19T04:19:10;17.50;99.90
40123;DHT22;25832;45.490;4.912;2022-08-19T04:21:36;17.50;99.90
40123;DHT22;25832;45.490;4.912;2022-08-19T04:24:03;17.50;99.90
40123;DHT22;25832;45.490;4.912;2022-08-19T04:26:31;17.60;99.90
40123;DHT22;25832;45.490;4.912;2022-08-19T04:29:00;17.60;99.90
40123;DHT22;25832;45.490;4.912;2022-08-19T04:31:30;17.60;99.90
40123;DHT22;25832;45.490;4.912;2022-08-19T04:33:58;17.60;99.90
40123;DHT22;25832;45.490;4.912;2022-08-19T04:36:27;17.60;99.90
40123;DHT22;25832;45.490;4.912;2022-08-19T04:38:56;17.60;99.90
40123;DHT22;25832;45.490;4.912;2022-08-19T04:41:22;17.60;99.90
40123;DHT22;25832;45.490;4.912;2022-08-19T04:44:06;17.60;99.90
40123;DHT22;25832;45.490;4.912;2022-08-19T04:46:32;17.70;99.90
40123;DHT22;25832;45.490;4.912;2022-08-19T04:48:59;17.70;99.90
40123;DHT22;25832;45.490;4.912;2022-08-19T04:51:25;17.70;99.90
40123;DHT22;25832;45.490;4.912;2022-08-19T04:53:51;17.80;99.90
40123;DHT22;25832;45.490;4.912;2022-08-19T04:56:19;17.80;99.90
40123;DHT22;25832;45.490;4.912;2022-08-19T04:58:46;17.80;99.90
40123;DHT22;25832;45.490;4.912;2022-08-19T05:01:13;17.80;99.90
40123;DHT22;25832;45.490;4.912;2022-08-19T05:03:39;17.80;99.90
40123;DHT22;25832;45.490;4.912;2022-08-19T05:06:07;17.80;99.90
40123;DHT22;25832;45.490;4.912;2022-08-19T05:08:34;17.80;99.90
40123;DHT22;25832;45.490;4.912;2022-08-19T05:11:11;17.80;99.90
40123;DHT22;25832;45.490;4.912;2022-08-19T05:13:37;17.70;99.90
40123;DHT22;25832;45.490;4.912;2022-08-19T05:16:03;17.70;99.90
40123;DHT22;25832;45.490;4.912;2022-08-19T05:18:29;17.80;99.90
40123;DHT22;25832;45.490;4.912;2022-08-19T05:21:17;17.80;99.90
40123;DHT22;25832;45.490;4.912;2022-08-19T05:24:02;17.80;99.90
40123;DHT22;25832;45.490;4.912;2022-08-19T05:26:28;17.80;99.90
40123;DHT22;25832;45.490;4.912;2022-08-19T05:28:54;17.80;99.90
40123;DHT22;25832;45.490;4.912;2022-08-19T05:31:21;17.80;99.90
40123;DHT22;25832;45.490;4.912;2022-08-19T05:33:47;17.80;99.90
40123;DHT22;25832;45.490;4.912;2022-08-19T05:36:13;17.70;99.90
40123;DHT22;25832;45.490;4.912;2022-08-19T05:38:39;17.80;99.90
40123;DHT22;25832;45.490;4.912;2022-08-19T05:41:10;17.70;99.90
40123;DHT22;25832;45.490;4.912;2022-08-19T05:43:37;17.80;99.90
40123;DHT22;25832;45.490;4.912;2022-08-19T05:46:04;17.80;99.90
40123;DHT22;25832;45.490;4.912;2022-08-19T05:48:35;17.70;99.90
40123;DHT22;25832;45.490;4.912;2022-08-19T05:51:05;17.70;99.90
40123;DHT22;25832;45.490;4.912;2022-08-19T05:53:34;17.60;99.90
40123;DHT22;25832;45.490;4.912;2022-08-19T05:56:12;17.60;99.90
40123;DHT22;25832;45.490;4.912;2022-08-19T05:58:38;17.60;99.90
40123;DHT22;25832;45.490;4.912;2022-08-19T06:01:10;17.60;99.90
40123;DHT22;25832;45.490;4.912;2022-08-19T06:03:37;17.50;99.90
40123;DHT22;25832;45.490;4.912;2022-08-19T06:06:04;17.50;99.90
40123;DHT22;25832;45.490;4.912;2022-08-19T06:08:30;17.50;99.90
40123;DHT22;25832;45.490;4.912;2022-08-19T06:10:57;17.60;99.90
40123;DHT22;25832;45.490;4.912;2022-08-19T06:13:23;17.50;99.90
40123;DHT22;25832;45.490;4.912;2022-08-19T06:15:49;17.50;99.90
40123;DHT22;25832;45.490;4.912;2022-08-19T06:18:15;17.50;99.90
40123;DHT22;25832;45.490;4.912;2022-08-19T06:20:41;17.60;99.90
40123;DHT22;25832;45.490;4.912;2022-08-19T06:23:07;17.50;99.90
40123;DHT22;25832;45.490;4.912;2022-08-19T06:25:34;17.60;99.90
40123;DHT22;25832;45.490;4.912;2022-08-19T06:28:01;17.50;99.90
40123;DHT22;25832;45.490;4.912;2022-08-19T06:30:27;17.50;99.90
40123;DHT22;25832;45.490;4.912;2022-08-19T06:32:53;17.40;99.90
40123;DHT22;25832;45.490;4.912;2022-08-19T06:35:19;17.40;99.90
40123;DHT22;25832;45.490;4.912;2022-08-19T06:37:45;17.40;99.90
40123;DHT22;25832;45.490;4.912;2022-08-19T06:40:11;17.40;99.90
40123;DHT22;25832;45.490;4.912;2022-08-19T06:42:38;17.40;99.90
40123;DHT22;25832;45.490;4.912;2022-08-19T06:45:05;17.40;99.90
40123;DHT22;25832;45.490;4.912;2022-08-19T06:47:31;17.30;99.90
40123;DHT22;25832;45.490;4.912;2022-08-19T06:50:00;17.40;99.90
40123;DHT22;25832;45.490;4.912;2022-08-19T06:52:32;17.40;99.90
40123;DHT22;25832;45.490;4.912;2022-08-19T06:54:59;17.40;99.90
40123;DHT22;25832;45.490;4.912;2022-08-19T06:57:25;17.40;99.90
40123;DHT22;25832;45.490;4.912;2022-08-19T06:59:51;17.40;99.90
40123;DHT22;25832;45.490;4.912;2022-08-19T07:02:18;17.40;99.90
40123;DHT22;25832;45.490;4.912;2022-08-19T07:04:44;17.40;99.90
40123;DHT22;25832;45.490;4.912;2022-08-19T07:07:13;17.40;99.90
40123;DHT22;25832;45.490;4.912;2022-08-19T07:09:42;17.40;99.90
40123;DHT22;25832;45.490;4.912;2022-08-19T07:12:09;17.40;99.90
40123;DHT22;25832;45.490;4.912;2022-08-19T07:14:36;17.50;99.90
40123;DHT22;25832;45.490;4.912;2022-08-19T07:17:05;17.50;99.90
40123;DHT22;25832;45.490;4.912;2022-08-19T07:19:32;17.50;99.90
40123;DHT22;25832;45.490;4.912;2022-08-19T07:21:58;17.50;99.90
40123;DHT22;25832;45.490;4.912;2022-08-19T07:24:27;17.60;99.90
40123;DHT22;25832;45.490;4.912;2022-08-19T07:26:55;17.60;99.90
40123;DHT22;25832;45.490;4.912;2022-08-19T07:29:22;17.50;99.90
40123;DHT22;25832;45.490;4.912;2022-08-19T07:31:53;17.50;99.90
40123;DHT22;25832;45.490;4.912;2022-08-19T07:34:22;17.60;99.90
40123;DHT22;25832;45.490;4.912;2022-08-19T07:36:49;17.60;99.90
40123;DHT22;25832;45.490;4.912;2022-08-19T07:39:17;17.60;99.90
40123;DHT22;25832;45.490;4.912;2022-08-19T07:41:44;17.60;99.90
40123;DHT22;25832;45.490;4.912;2022-08-19T07:44:11;17.60;99.90
40123;DHT22;25832;45.490;4.912;2022-08-19T07:46:41;17.60;99.90
40123;DHT22;25832;45.490;4.912;2022-08-19T07:49:07;17.60;99.90
40123;DHT22;25832;45.490;4.912;2022-08-19T07:51:34;17.70;99.90
40123;DHT22;25832;45.490;4.912;2022-08-19T07:54:00;17.70;99.90
40123;DHT22;25832;45.490;4.912;2022-08-19T07:56:26;17.70;99.90
40123;DHT22;25832;45.490;4.912;2022-08-19T07:58:52;17.70;99.90
40123;DHT22;25832;45.490;4.912;2022-08-19T08:01:23;17.70;99.90
40123;DHT22;25832;45.490;4.912;2022-08-19T08:03:51;17.70;99.90
40123;DHT22;25832;45.490;4.912;2022-08-19T08:06:36;17.70;99.90
40123;DHT22;25832;45.490;4.912;2022-08-19T08:09:26;17.70;99.90
40123;DHT22;25832;45.490;4.912;2022-08-19T08:11:54;17.70;99.90
40123;DHT22;25832;45.490;4.912;2022-08-19T08:14:29;17.80;99.90
40123;DHT22;25832;45.490;4.912;2022-08-19T08:16:55;17.80;99.90
40123;DHT22;25832;45.490;4.912;2022-08-19T08:19:22;17.80;99.90
40123;DHT22;25832;45.490;4.912;2022-08-19T08:21:49;17.80;99.90
40123;DHT22;25832;45.490;4.912;2022-08-19T08:24:16;17.90;99.90
40123;DHT22;25832;45.490;4.912;2022-08-19T08:26:42;17.90;99.90
40123;DHT22;25832;45.490;4.912;2022-08-19T08:29:12;17.90;99.90
40123;DHT22;25832;45.490;4.912;2022-08-19T08:31:43;17.80;99.90
40123;DHT22;25832;45.490;4.912;2022-08-19T08:34:10;17.80;99.90
40123;DHT22;25832;45.490;4.912;2022-08-19T08:36:38;17.80;99.90
40123;DHT22;25832;45.490;4.912;2022-08-19T08:39:08;17.80;99.90
40123;DHT22;25832;45.490;4.912;2022-08-19T08:42:01;17.80;99.90
40123;DHT22;25832;45.490;4.912;2022-08-19T08:47:10;17.80;99.90
40123;DHT22;25832;45.490;4.912;2022-08-19T08:49:50;17.80;99.90
40123;DHT22;25832;45.490;4.912;2022-08-19T08:52:29;17.90;99.90
40123;DHT22;25832;45.490;4.912;2022-08-19T08:54:58;17.90;99.90
40123;DHT22;25832;45.490;4.912;2022-08-19T08:57:44;17.90;99.90
40123;DHT22;25832;45.490;4.912;2022-08-19T09:00:17;17.80;99.90
40123;DHT22;25832;45.490;4.912;2022-08-19T09:02:43;17.90;99.90
40123;DHT22;25832;45.490;4.912;2022-08-19T09:05:09;17.80;99.90
40123;DHT22;25832;45.490;4.912;2022-08-19T09:13:36;17.90;99.90
40123;DHT22;25832;45.490;4.912;2022-08-19T09:16:07;17.90;99.90
40123;DHT22;25832;45.490;4.912;2022-08-19T09:18:47;17.90;99.90
40123;DHT22;25832;45.490;4.912;2022-08-19T09:21:14;17.90;99.90
40123;DHT22;25832;45.490;4.912;2022-08-19T09:23:40;17.90;99.90
40123;DHT22;25832;45.490;4.912;2022-08-19T09:26:16;17.90;99.90
40123;DHT22;25832;45.490;4.912;2022-08-19T09:28:44;17.90;99.90
40123;DHT22;25832;45.490;4.912;2022-08-19T09:31:12;17.90;99.90
40123;DHT22;25832;45.490;4.912;2022-08-19T09:33:38;17.90;99.90
40123;DHT22;25832;45.490;4.912;2022-08-19T09:36:06;17.90;99.90
40123;DHT22;25832;45.490;4.912;2022-08-19T09:38:33;17.90;99.90
40123;DHT22;25832;45.490;4.912;2022-08-19T09:41:04;17.90;99.90
40123;DHT22;25832;45.490;4.912;2022-08-19T09:43:30;17.90;99.90
40123;DHT22;25832;45.490;4.912;2022-08-19T09:45:56;17.90;99.90
40123;DHT22;25832;45.490;4.912;2022-08-19T09:48:22;17.90;99.90
40123;DHT22;25832;45.490;4.912;2022-08-19T09:50:48;17.80;99.90
40123;DHT22;25832;45.490;4.912;2022-08-19T09:53:15;17.80;99.90
40123;DHT22;25832;45.490;4.912;2022-08-19T09:55:44;17.80;99.90
40123;DHT22;25832;45.490;4.912;2022-08-19T09:58:09;17.80;99.90
40123;DHT22;25832;45.490;4.912;2022-08-19T10:00:37;17.90;99.90
40123;DHT22;25832;45.490;4.912;2022-08-19T10:03:03;17.90;99.90
40123;DHT22;25832;45.490;4.912;2022-08-19T10:05:29;17.90;99.90
40123;DHT22;25832;45.490;4.912;2022-08-19T10:08:15;17.90;99.90
40123;DHT22;25832;45.490;4.912;2022-08-19T10:10:43;18.00;99.90
40123;DHT22;25832;45.490;4.912;2022-08-19T10:13:09;18.00;99.90
40123;DHT22;25832;45.490;4.912;2022-08-19T10:15:35;18.00;99.90
40123;DHT22;25832;45.490;4.912;2022-08-19T10:18:02;18.00;99.90
40123;DHT22;25832;45.490;4.912;2022-08-19T10:20:28;18.10;99.90
40123;DHT22;25832;45.490;4.912;2022-08-19T10:22:55;18.20;99.90
40123;DHT22;25832;45.490;4.912;2022-08-19T10:25:21;18.20;99.90
40123;DHT22;25832;45.490;4.912;2022-08-19T10:27:46;18.30;99.90
40123;DHT22;25832;45.490;4.912;2022-08-19T10:30:13;18.50;99.90
40123;DHT22;25832;45.490;4.912;2022-08-19T10:32:38;18.70;99.90
40123;DHT22;25832;45.490;4.912;2022-08-19T10:35:05;18.80;99.90
40123;DHT22;25832;45.490;4.912;2022-08-19T10:37:36;19.00;99.90
40123;DHT22;25832;45.490;4.912;2022-08-19T10:40:06;19.00;99.90
40123;DHT22;25832;45.490;4.912;2022-08-19T10:42:34;19.20;99.90
40123;DHT22;25832;45.490;4.912;2022-08-19T10:45:00;19.20;99.90
40123;DHT22;25832;45.490;4.912;2022-08-19T10:47:26;19.30;99.90
40123;DHT22;25832;45.490;4.912;2022-08-19T10:49:53;19.30;99.90
40123;DHT22;25832;45.490;4.912;2022-08-19T10:52:42;19.40;99.90
40123;DHT22;25832;45.490;4.912;2022-08-19T10:55:08;19.40;99.90
40123;DHT22;25832;45.490;4.912;2022-08-19T10:57:52;19.40;99.90
40123;DHT22;25832;45.490;4.912;2022-08-19T11:00:19;19.50;99.90
40123;DHT22;25832;45.490;4.912;2022-08-19T11:02:45;19.50;99.90
40123;DHT22;25832;45.490;4.912;2022-08-19T11:05:12;19.50;99.90
40123;DHT22;25832;45.490;4.912;2022-08-19T11:07:38;19.60;99.90
40123;DHT22;25832;45.490;4.912;2022-08-19T11:10:05;19.60;99.90
40123;DHT22;25832;45.490;4.912;2022-08-19T11:12:30;19.70;99.90
40123;DHT22;25832;45.490;4.912;2022-08-19T11:14:56;19.80;99.90
40123;DHT22;25832;45.490;4.912;2022-08-19T11:17:22;19.70;99.90
40123;DHT22;25832;45.490;4.912;2022-08-19T11:19:49;19.80;99.90
40123;DHT22;25832;45.490;4.912;2022-08-19T11:22:15;19.90;99.90
40123;DHT22;25832;45.490;4.912;2022-08-19T11:24:42;20.00;99.90
40123;DHT22;25832;45.490;4.912;2022-08-19T11:27:09;20.10;99.90
40123;DHT22;25832;45.490;4.912;2022-08-19T11:29:39;20.20;99.90
40123;DHT22;25832;45.490;4.912;2022-08-19T11:32:07;20.30;99.90
40123;DHT22;25832;45.490;4.912;2022-08-19T11:34:35;20.40;99.90
40123;DHT22;25832;45.490;4.912;2022-08-19T11:37:01;20.60;99.90
40123;DHT22;25832;45.490;4.912;2022-08-19T11:39:30;20.70;99.90
40123;DHT22;25832;45.490;4.912;2022-08-19T11:41:58;20.80;99.90
40123;DHT22;25832;45.490;4.912;2022-08-19T11:44:24;20.90;99.90
40123;DHT22;25832;45.490;4.912;2022-08-19T11:46:50;21.10;99.90
40123;DHT22;25832;45.490;4.912;2022-08-19T11:49:19;21.20;99.90
40123;DHT22;25832;45.490;4.912;2022-08-19T11:51:46;21.40;99.90
40123;DHT22;25832;45.490;4.912;2022-08-19T11:54:13;21.60;99.90
40123;DHT22;25832;45.490;4.912;2022-08-19T11:56:40;21.70;99.90
40123;DHT22;25832;45.490;4.912;2022-08-19T11:59:06;21.90;99.90
40123;DHT22;25832;45.490;4.912;2022-08-19T12:01:33;22.10;99.90
40123;DHT22;25832;45.490;4.912;2022-08-19T12:03:59;22.30;99.90
40123;DHT22;25832;45.490;4.912;2022-08-19T12:06:28;22.20;99.90
40123;DHT22;25832;45.490;4.912;2022-08-19T12:09:06;22.30;99.90
40123;DHT22;25832;45.490;4.912;2022-08-19T12:11:34;22.40;99.90
40123;DHT22;25832;45.490;4.912;2022-08-19T12:13:59;22.50;99.90
40123;DHT22;25832;45.490;4.912;2022-08-19T12:16:28;22.50;99.90
40123;DHT22;25832;45.490;4.912;2022-08-19T12:18:55;22.50;99.90
40123;DHT22;25832;45.490;4.912;2022-08-19T12:21:24;22.50;99.90
40123;DHT22;25832;45.490;4.912;2022-08-19T12:23:55;22.60;99.90
40123;DHT22;25832;45.490;4.912;2022-08-19T12:26:21;22.80;99.90
40123;DHT22;25832;45.490;4.912;2022-08-19T12:28:47;23.00;99.90
40123;DHT22;25832;45.490;4.912;2022-08-19T12:31:14;23.10;99.90
40123;DHT22;25832;45.490;4.912;2022-08-19T12:33:40;23.30;99.90
40123;DHT22;25832;45.490;4.912;2022-08-19T12:36:08;23.50;99.90
40123;DHT22;25832;45.490;4.912;2022-08-19T12:38:35;23.50;99.90
40123;DHT22;25832;45.490;4.912;2022-08-19T12:41:02;23.50;99.90
40123;DHT22;25832;45.490;4.912;2022-08-19T12:43:31;23.50;99.90
40123;DHT22;25832;45.490;4.912;2022-08-19T12:45:56;23.60;99.90
40123;DHT22;25832;45.490;4.912;2022-08-19T12:48:22;23.70;99.90
40123;DHT22;25832;45.490;4.912;2022-08-19T12:50:48;23.80;99.90
40123;DHT22;25832;45.490;4.912;2022-08-19T12:53:14;23.90;99.90
40123;DHT22;25832;45.490;4.912;2022-08-19T12:55:41;23.90;99.90
40123;DHT22;25832;45.490;4.912;2022-08-19T12:58:08;23.90;99.90
40123;DHT22;25832;45.490;4.912;2022-08-19T13:00:34;23.70;99.90
40123;DHT22;25832;45.490;4.912;2022-08-19T13:03:00;23.60;99.90
40123;DHT22;25832;45.490;4.912;2022-08-19T13:05:29;23.40;99.90
40123;DHT22;25832;45.490;4.912;2022-08-19T13:07:56;23.30;99.90
40123;DHT22;25832;45.490;4.912;2022-08-19T13:10:26;23.20;99.90
40123;DHT22;25832;45.490;4.912;2022-08-19T13:12:53;23.10;99.90
40123;DHT22;25832;45.490;4.912;2022-08-19T13:15:20;23.10;99.90
40123;DHT22;25832;45.490;4.912;2022-08-19T13:17:48;23.10;99.90
40123;DHT22;25832;45.490;4.912;2022-08-19T13:20:16;23.10;99.90
40123;DHT22;25832;45.490;4.912;2022-08-19T13:22:42;23.20;99.90
40123;DHT22;25832;45.490;4.912;2022-08-19T13:25:10;23.30;99.90
40123;DHT22;25832;45.490;4.912;2022-08-19T13:27:37;23.30;99.90
40123;DHT22;25832;45.490;4.912;2022-08-19T13:30:03;23.40;99.90
40123;DHT22;25832;45.490;4.912;2022-08-19T13:32:48;23.40;99.90
40123;DHT22;25832;45.490;4.912;2022-08-19T13:35:32;23.50;99.90
40123;DHT22;25832;45.490;4.912;2022-08-19T13:37:58;23.50;99.90
40123;DHT22;25832;45.490;4.912;2022-08-19T13:40:24;23.50;99.90
40123;DHT22;25832;45.490;4.912;2022-08-19T13:42:53;23.40;99.90
40123;DHT22;25832;45.490;4.912;2022-08-19T13:45:22;23.30;99.90
40123;DHT22;25832;45.490;4.912;2022-08-19T13:47:50;23.40;99.90
40123;DHT22;25832;45.490;4.912;2022-08-19T13:50:18;23.50;99.90
40123;DHT22;25832;45.490;4.912;2022-08-19T13:52:45;23.50;99.90
40123;DHT22;25832;45.490;4.912;2022-08-19T13:55:12;23.60;99.90
40123;DHT22;25832;45.490;4.912;2022-08-19T13:57:37;23.70;99.90
40123;DHT22;25832;45.490;4.912;2022-08-19T14:00:12;24.00;99.90
40123;DHT22;25832;45.490;4.912;2022-08-19T14:02:39;24.30;99.90
40123;DHT22;25832;45.490;4.912;2022-08-19T14:05:09;24.40;99.90
40123;DHT22;25832;45.490;4.912;2022-08-19T14:07:35;24.20;99.90
40123;DHT22;25832;45.490;4.912;2022-08-19T14:10:02;24.10;99.90
40123;DHT22;25832;45.490;4.912;2022-08-19T14:12:28;23.90;99.90
40123;DHT22;25832;45.490;4.912;2022-08-19T14:14:54;23.90;99.90
40123;DHT22;25832;45.490;4.912;2022-08-19T14:17:20;24.00;99.90
40123;DHT22;25832;45.490;4.912;2022-08-19T14:19:46;24.00;99.90
40123;DHT22;25832;45.490;4.912;2022-08-19T14:22:13;23.90;99.90
40123;DHT22;25832;45.490;4.912;2022-08-19T14:24:38;24.10;99.90
40123;DHT22;25832;45.490;4.912;2022-08-19T14:27:07;24.20;99.90
40123;DHT22;25832;45.490;4.912;2022-08-19T14:29:33;24.10;99.90
40123;DHT22;25832;45.490;4.912;2022-08-19T14:31:59;24.10;99.90
40123;DHT22;25832;45.490;4.912;2022-08-19T14:34:26;24.20;99.90
40123;DHT22;25832;45.490;4.912;2022-08-19T14:36:52;24.20;99.90
40123;DHT22;25832;45.490;4.912;2022-08-19T14:39:18;24.30;99.90
40123;DHT22;25832;45.490;4.912;2022-08-19T14:41:44;24.40;99.90
40123;DHT22;25832;45.490;4.912;2022-08-19T14:44:11;24.60;99.90
40123;DHT22;25832;45.490;4.912;2022-08-19T14:46:39;24.80;99.40
40123;DHT22;25832;45.490;4.912;2022-08-19T14:49:05;24.80;98.80
40123;DHT22;25832;45.490;4.912;2022-08-19T14:51:31;24.80;98.40
40123;DHT22;25832;45.490;4.912;2022-08-19T14:53:57;24.90;98.60
40123;DHT22;25832;45.490;4.912;2022-08-19T14:56:25;24.70;99.00
40123;DHT22;25832;45.490;4.912;2022-08-19T14:58:52;24.60;98.10
40123;DHT22;25832;45.490;4.912;2022-08-19T15:01:19;24.60;99.50
40123;DHT22;25832;45.490;4.912;2022-08-19T15:03:46;24.50;99.60
40123;DHT22;25832;45.490;4.912;2022-08-19T15:06:13;24.60;99.90
40123;DHT22;25832;45.490;4.912;2022-08-19T15:08:41;24.70;99.90
40123;DHT22;25832;45.490;4.912;2022-08-19T15:11:12;24.70;99.80
40123;DHT22;25832;45.490;4.912;2022-08-19T15:13:40;24.80;99.00
40123;DHT22;25832;45.490;4.912;2022-08-19T15:16:06;24.80;99.50
40123;DHT22;25832;45.490;4.912;2022-08-19T15:18:31;24.90;98.40
40123;DHT22;25832;45.490;4.912;2022-08-19T15:20:58;24.80;99.00
40123;DHT22;25832;45.490;4.912;2022-08-19T15:23:25;24.80;98.90
40123;DHT22;25832;45.490;4.912;2022-08-19T15:25:50;24.60;98.90
40123;DHT22;25832;45.490;4.912;2022-08-19T15:28:21;24.50;99.30
40123;DHT22;25832;45.490;4.912;2022-08-19T15:30:46;24.50;99.10
40123;DHT22;25832;45.490;4.912;2022-08-19T15:33:12;24.50;99.20
40123;DHT22;25832;45.490;4.912;2022-08-19T15:35:40;24.50;98.60
40123;DHT22;25832;45.490;4.912;2022-08-19T15:38:07;24.60;99.70
40123;DHT22;25832;45.490;4.912;2022-08-19T15:40:33;24.70;98.10
40123;DHT22;25832;45.490;4.912;2022-08-19T15:42:59;24.80;98.40
40123;DHT22;25832;45.490;4.912;2022-08-19T15:45:25;25.00;98.40